sensor_id;sensor_type;location;lat;lon;timestamp;temperature;humidity
54960;DHT22;40860;51.710;8.736;2023-03-21T00:03:32;9.10;99.90
54960;DHT22;40860;51.710;8.736;2023-03-21T00:07:36;9.10;99.90
54960;DHT22;40860;51.710;8.736;2023-03-21T00:11:38;9.10;99.90
54960;DHT22;40860;51.710;8.736;2023-03-21T00:15:42;9.10;99.90
54960;DHT22;40860;51.710;8.736;2023-03-21T00:20:13;9.10;99.90
54960;DHT22;40860;51.710;8.736;2023-03-21T00:24:16;9.10;99.90
54960;DHT22;40860;51.710;8.736;2023-03-21T00:28:19;9.10;99.90
54960;DHT22;40860;51.710;8.736;2023-03-21T00:32:22;9.10;99.90
54960;DHT22;40860;51.710;8.736;2023-03-21T00:36:27;9.10;99.90
54960;DHT22;40860;51.710;8.736;2023-03-21T00:40:29;9.10;99.90
54960;DHT22;40860;51.710;8.736;2023-03-21T00:44:43;9.10;99.90
54960;DHT22;40860;51.710;8.736;2023-03-21T00:48:46;9.10;99.90
54960;DHT22;40860;51.710;8.736;2023-03-21T00:52:50;9.10;99.90
54960;DHT22;40860;51.710;8.736;2023-03-21T00:56:53;9.20;99.90
54960;DHT22;40860;51.710;8.736;2023-03-21T01:00:57;9.20;99.90
54960;DHT22;40860;51.710;8.736;2023-03-21T01:05:00;9.30;99.90
54960;DHT22;40860;51.710;8.736;2023-03-21T01:09:05;9.30;99.90
54960;DHT22;40860;51.710;8.736;2023-03-21T01:13:14;9.20;99.90
54960;DHT22;40860;51.710;8.736;2023-03-21T01:17:17;9.20;99.90
54960;DHT22;40860;51.710;8.736;2023-03-21T01:21:20;9.20;99.90
54960;DHT22;40860;51.710;8.736;2023-03-21T01:25:24;9.10;99.90
54960;DHT22;40860;51.710;8.736;2023-03-21T01:29:27;9.10;99.90
54960;DHT22;40860;51.710;8.736;2023-03-21T01:33:35;9.10;99.90
54960;DHT22;40860;51.710;8.736;2023-03-21T01:37:37;9.10;99.90
54960;DHT22;40860;51.710;8.736;2023-03-21T01:41:42;9.10;99.90
54960;DHT22;40860;51.710;8.736;2023-03-21T01:46:21;9.10;99.90
54960;DHT22;40860;51.710;8.736;2023-03-21T01:50:34;9.10;99.90
54960;DHT22;40860;51.710;8.736;2023-03-21T01:54:56;9.10;99.90
54960;DHT22;40860;51.710;8.736;2023-03-21T01:59:04;9.10;99.90
54960;DHT22;40860;51.710;8.736;2023-03-21T02:03:40;9.10;99.90
54960;DHT22;40860;51.710;8.736;2023-03-21T02:08:24;9.10;99.90
54960;DHT22;40860;51.710;8.736;2023-03-21T02:12:44;9.20;99.90
54960;DHT22;40860;51.710;8.736;2023-03-21T02:16:52;9.20;99.90
54960;DHT22;40860;51.710;8.736;2023-03-21T02:26:03;9.20;99.90
54960;DHT22;40860;51.710;8.736;2023-03-21T02:30:37;9.20;99.90
54960;DHT22;40860;51.710;8.736;2023-03-21T02:35:09;9.20;99.90
54960;DHT22;40860;51.710;8.736;2023-03-21T02:39:23;9.20;99.90
54960;DHT22;40860;51.710;8.736;2023-03-21T02:43:32;9.20;99.90
54960;DHT22;40860;51.710;8.736;2023-03-21T02:47:42;9.20;99.90
54960;DHT22;40860;51.710;8.736;2023-03-21T02:51:49;9.20;99.90
54960;DHT22;40860;51.710;8.736;2023-03-21T02:55:55;9.20;99.90
54960;DHT22;40860;51.710;8.736;2023-03-21T02:59:59;9.20;99.90
54960;DHT22;40860;51.710;8.736;2023-03-21T03:04:18;9.20;99.90
54960;DHT22;40860;51.710;8.736;2023-03-21T03:08:31;9.20;99.90
54960;DHT22;40860;51.710;8.736;2023-03-21T03:12:58;9.20;99.90
54960;DHT22;40860;51.710;8.736;2023-03-21T03:17:14;9.30;99.90
54960;DHT22;40860;51.710;8.736;2023-03-21T03:21:23;9.30;99.90
54960;DHT22;40860;51.710;8.736;2023-03-21T03:25:31;9.30;99.90
54960;DHT22;40860;51.710;8.736;2023-03-21T03:29:48;9.30;99.90
54960;DHT22;40860;51.710;8.736;2023-03-21T03:33:59;9.30;99.90
54960;DHT22;40860;51.710;8.736;2023-03-21T03:38:06;9.30;99.90
54960;DHT22;40860;51.710;8.736;2023-03-21T03:42:14;9.30;99.80
54960;DHT22;40860;51.710;8.736;2023-03-21T03:46:42;9.40;99.80
54960;DHT22;40860;51.710;8.736;2023-03-21T03:50:52;9.40;99.80
54960;DHT22;40860;51.710;8.736;2023-03-21T03:55:06;9.30;99.90
54960;DHT22;40860;51.710;8.736;2023-03-21T03:59:14;9.30;99.90
54960;DHT22;40860;51.710;8.736;2023-03-21T04:03:31;9.30;99.90
54960;DHT22;40860;51.710;8.736;2023-03-21T04:07:48;9.30;99.90
54960;DHT22;40860;51.710;8.736;2023-03-21T04:11:58;9.30;99.90
54960;DHT22;40860;51.710;8.736;2023-03-21T04:16:05;9.30;99.90
54960;DHT22;40860;51.710;8.736;2023-03-21T04:20:10;9.30;99.90
54960;DHT22;40860;51.710;8.736;2023-03-21T04:24:24;9.40;99.90
54960;DHT22;40860;51.710;8.736;2023-03-21T04:28:27;9.40;99.90
54960;DHT22;40860;51.710;8.736;2023-03-21T04:32:51;9.40;99.80
54960;DHT22;40860;51.710;8.736;2023-03-21T04:37:00;9.40;99.80
54960;DHT22;40860;51.710;8.736;2023-03-21T04:41:05;9.40;99.70
54960;DHT22;40860;51.710;8.736;2023-03-21T04:45:10;9.40;99.80
54960;DHT22;40860;51.710;8.736;2023-03-21T04:49:13;9.40;99.80
54960;DHT22;40860;51.710;8.736;2023-03-21T04:53:18;9.40;99.90
54960;DHT22;40860;51.710;8.736;2023-03-21T04:57:21;9.40;99.80
54960;DHT22;40860;51.710;8.736;2023-03-21T05:01:24;9.40;99.80
54960;DHT22;40860;51.710;8.736;2023-03-21T05:05:31;9.50;99.90
54960;DHT22;40860;51.710;8.736;2023-03-21T05:09:35;9.50;99.90
54960;DHT22;40860;51.710;8.736;2023-03-21T05:13:39;9.50;99.80
54960;DHT22;40860;51.710;8.736;2023-03-21T05:17:42;9.50;99.80
54960;DHT22;40860;51.710;8.736;2023-03-21T05:21:45;9.50;99.80
54960;DHT22;40860;51.710;8.736;2023-03-21T05:25:55;9.50;99.80
54960;DHT22;40860;51.710;8.736;2023-03-21T05:30:11;9.50;99.70
54960;DHT22;40860;51.710;8.736;2023-03-21T05:34:15;9.60;99.60
54960;DHT22;40860;51.710;8.736;2023-03-21T05:38:18;9.50;99.60
54960;DHT22;40860;51.710;8.736;2023-03-21T05:42:27;9.50;99.60
54960;DHT22;40860;51.710;8.736;2023-03-21T05:46:33;9.60;99.50
54960;DHT22;40860;51.710;8.736;2023-03-21T05:50:38;9.60;99.40
54960;DHT22;40860;51.710;8.736;2023-03-21T05:54:50;9.60;99.50
54960;DHT22;40860;51.710;8.736;2023-03-21T05:58:57;9.60;99.30
54960;DHT22;40860;51.710;8.736;2023-03-21T06:03:01;9.70;99.30
54960;DHT22;40860;51.710;8.736;2023-03-21T06:07:14;9.70;99.30
54960;DHT22;40860;51.710;8.736;2023-03-21T06:11:23;9.70;99.30
54960;DHT22;40860;51.710;8.736;2023-03-21T06:15:44;9.70;99.30
54960;DHT22;40860;51.710;8.736;2023-03-21T06:19:52;9.80;99.30
54960;DHT22;40860;51.710;8.736;2023-03-21T06:24:01;9.90;99.10
54960;DHT22;40860;51.710;8.736;2023-03-21T06:28:04;9.90;99.00
54960;DHT22;40860;51.710;8.736;2023-03-21T06:32:12;10.00;98.90
54960;DHT22;40860;51.710;8.736;2023-03-21T06:36:18;10.00;98.80
54960;DHT22;40860;51.710;8.736;2023-03-21T06:40:23;10.10;98.50
54960;DHT22;40860;51.710;8.736;2023-03-21T06:44:27;10.10;98.50
54960;DHT22;40860;51.710;8.736;2023-03-21T06:48:37;10.10;98.40
54960;DHT22;40860;51.710;8.736;2023-03-21T06:52:45;10.20;98.30
54960;DHT22;40860;51.710;8.736;2023-03-21T06:56:49;10.20;98.30
54960;DHT22;40860;51.710;8.736;2023-03-21T07:00:58;10.30;98.30
54960;DHT22;40860;51.710;8.736;2023-03-21T07:05:03;10.40;98.20
54960;DHT22;40860;51.710;8.736;2023-03-21T07:09:06;10.40;98.10
54960;DHT22;40860;51.710;8.736;2023-03-21T07:13:09;10.50;98.10
54960;DHT22;40860;51.710;8.736;2023-03-21T07:17:16;10.50;98.40
54960;DHT22;40860;51.710;8.736;2023-03-21T07:21:20;10.60;97.90
54960;DHT22;40860;51.710;8.736;2023-03-21T07:25:23;10.60;97.90
54960;DHT22;40860;51.710;8.736;2023-03-21T07:29:27;10.70;97.80
54960;DHT22;40860;51.710;8.736;2023-03-21T07:33:30;10.80;97.70
54960;DHT22;40860;51.710;8.736;2023-03-21T07:37:36;10.90;97.40
54960;DHT22;40860;51.710;8.736;2023-03-21T07:41:40;11.00;97.20
54960;DHT22;40860;51.710;8.736;2023-03-21T07:45:56;11.00;97.10
54960;DHT22;40860;51.710;8.736;2023-03-21T07:50:00;11.10;97.00
54960;DHT22;40860;51.710;8.736;2023-03-21T07:54:06;11.20;96.80
54960;DHT22;40860;51.710;8.736;2023-03-21T07:58:09;11.30;96.70
54960;DHT22;40860;51.710;8.736;2023-03-21T08:02:14;11.40;96.60
54960;DHT22;40860;51.710;8.736;2023-03-21T08:06:17;11.50;96.40
54960;DHT22;40860;51.710;8.736;2023-03-21T08:10:21;11.60;96.30
54960;DHT22;40860;51.710;8.736;2023-03-21T08:14:24;11.60;95.90
54960;DHT22;40860;51.710;8.736;2023-03-21T08:18:26;11.60;95.60
54960;DHT22;40860;51.710;8.736;2023-03-21T08:22:29;11.70;95.70
54960;DHT22;40860;51.710;8.736;2023-03-21T08:26:33;11.70;95.70
54960;DHT22;40860;51.710;8.736;2023-03-21T08:30:37;11.70;95.70
54960;DHT22;40860;51.710;8.736;2023-03-21T08:34:40;11.70;95.60
54960;DHT22;40860;51.710;8.736;2023-03-21T08:38:43;11.70;95.50
54960;DHT22;40860;51.710;8.736;2023-03-21T08:42:47;11.70;95.40
54960;DHT22;40860;51.710;8.736;2023-03-21T08:46:50;11.70;95.20
54960;DHT22;40860;51.710;8.736;2023-03-21T08:50:53;11.80;94.90
54960;DHT22;40860;51.710;8.736;2023-03-21T08:54:56;11.80;95.30
54960;DHT22;40860;51.710;8.736;2023-03-21T08:59:00;11.80;95.70
54960;DHT22;40860;51.710;8.736;2023-03-21T09:03:03;11.80;95.80
54960;DHT22;40860;51.710;8.736;2023-03-21T09:07:06;11.70;96.30
54960;DHT22;40860;51.710;8.736;2023-03-21T09:11:11;11.70;96.40
54960;DHT22;40860;51.710;8.736;2023-03-21T09:15:16;11.70;96.80
54960;DHT22;40860;51.710;8.736;2023-03-21T09:19:20;11.60;97.20
54960;DHT22;40860;51.710;8.736;2023-03-21T09:23:24;11.60;97.60
54960;DHT22;40860;51.710;8.736;2023-03-21T09:27:28;11.60;97.90
54960;DHT22;40860;51.710;8.736;2023-03-21T09:31:32;11.60;98.00
54960;DHT22;40860;51.710;8.736;2023-03-21T09:35:35;11.70;97.90
54960;DHT22;40860;51.710;8.736;2023-03-21T09:39:38;11.70;98.00
54960;DHT22;40860;51.710;8.736;2023-03-21T09:43:52;11.70;98.30
54960;DHT22;40860;51.710;8.736;2023-03-21T09:47:57;11.70;98.60
54960;DHT22;40860;51.710;8.736;2023-03-21T09:52:02;11.70;99.20
54960;DHT22;40860;51.710;8.736;2023-03-21T09:56:09;11.70;99.70
54960;DHT22;40860;51.710;8.736;2023-03-21T10:00:18;11.60;99.90
54960;DHT22;40860;51.710;8.736;2023-03-21T10:04:24;11.60;99.90
54960;DHT22;40860;51.710;8.736;2023-03-21T10:08:30;11.60;99.90
54960;DHT22;40860;51.710;8.736;2023-03-21T10:12:36;11.50;99.90
54960;DHT22;40860;51.710;8.736;2023-03-21T10:16:41;11.40;99.90
54960;DHT22;40860;51.710;8.736;2023-03-21T10:20:46;11.40;99.90
54960;DHT22;40860;51.710;8.736;2023-03-21T10:24:49;11.40;99.90
54960;DHT22;40860;51.710;8.736;2023-03-21T10:28:53;11.40;99.90
54960;DHT22;40860;51.710;8.736;2023-03-21T10:33:00;11.40;99.90
54960;DHT22;40860;51.710;8.736;2023-03-21T10:37:07;11.50;99.90
54960;DHT22;40860;51.710;8.736;2023-03-21T10:41:10;11.50;99.90
54960;DHT22;40860;51.710;8.736;2023-03-21T10:45:15;11.50;99.90
54960;DHT22;40860;51.710;8.736;2023-03-21T10:49:19;11.50;99.90
54960;DHT22;40860;51.710;8.736;2023-03-21T10:53:28;11.50;99.90
54960;DHT22;40860;51.710;8.736;2023-03-21T10:57:34;11.40;99.90
54960;DHT22;40860;51.710;8.736;2023-03-21T11:01:41;11.50;99.90
54960;DHT22;40860;51.710;8.736;2023-03-21T11:05:44;11.50;99.90
54960;DHT22;40860;51.710;8.736;2023-03-21T11:09:53;11.60;99.90
54960;DHT22;40860;51.710;8.736;2023-03-21T11:13:58;11.70;99.90
54960;DHT22;40860;51.710;8.736;2023-03-21T11:18:13;11.60;99.90
54960;DHT22;40860;51.710;8.736;2023-03-21T11:22:18;11.70;99.90
54960;DHT22;40860;51.710;8.736;2023-03-21T11:26:26;11.70;99.90
54960;DHT22;40860;51.710;8.736;2023-03-21T11:30:29;11.70;99.90
54960;DHT22;40860;51.710;8.736;2023-03-21T11:34:43;11.70;99.90
54960;DHT22;40860;51.710;8.736;2023-03-21T11:38:49;11.70;99.90
54960;DHT22;40860;51.710;8.736;2023-03-21T11:42:55;11.70;99.90
54960;DHT22;40860;51.710;8.736;2023-03-21T11:46:58;11.70;99.90
54960;DHT22;40860;51.710;8.736;2023-03-21T11:51:03;11.70;99.90
54960;DHT22;40860;51.710;8.736;2023-03-21T11:55:31;11.70;99.90
54960;DHT22;40860;51.710;8.736;2023-03-21T11:59:44;11.70;99.90
54960;DHT22;40860;51.710;8.736;2023-03-21T12:04:02;11.70;99.90
54960;DHT22;40860;51.710;8.736;2023-03-21T12:08:09;11.70;99.90
54960;DHT22;40860;51.710;8.736;2023-03-21T12:12:29;11.60;99.90
54960;DHT22;40860;51.710;8.736;2023-03-21T12:16:52;11.60;99.90
54960;DHT22;40860;51.710;8.736;2023-03-21T12:21:00;11.50;99.90
54960;DHT22;40860;51.710;8.736;2023-03-21T12:25:09;11.50;99.90
54960;DHT22;40860;51.710;8.736;2023-03-21T12:29:24;11.50;99.90
54960;DHT22;40860;51.710;8.736;2023-03-21T12:33:44;11.60;99.90
54960;DHT22;40860;51.710;8.736;2023-03-21T12:37:59;11.60;99.90
54960;DHT22;40860;51.710;8.736;2023-03-21T12:42:43;11.60;99.90
54960;DHT22;40860;51.710;8.736;2023-03-21T12:46:50;11.60;99.90
54960;DHT22;40860;51.710;8.736;2023-03-21T12:50:59;11.60;99.90
54960;DHT22;40860;51.710;8.736;2023-03-21T12:55:09;11.60;99.90
54960;DHT22;40860;51.710;8.736;2023-03-21T12:59:22;11.60;99.90
54960;DHT22;40860;51.710;8.736;2023-03-21T13:03:30;11.50;99.90
54960;DHT22;40860;51.710;8.736;2023-03-21T13:07:46;11.60;99.90
54960;DHT22;40860;51.710;8.736;2023-03-21T13:11:51;11.60;99.90
54960;DHT22;40860;51.710;8.736;2023-03-21T13:16:03;11.60;99.90
54960;DHT22;40860;51.710;8.736;2023-03-21T13:20:16;11.70;99.90
54960;DHT22;40860;51.710;8.736;2023-03-21T13:24:31;11.70;99.90
54960;DHT22;40860;51.710;8.736;2023-03-21T13:28:35;11.80;99.90
54960;DHT22;40860;51.710;8.736;2023-03-21T13:32:41;11.90;99.90
54960;DHT22;40860;51.710;8.736;2023-03-21T13:36:45;11.90;99.90
54960;DHT22;40860;51.710;8.736;2023-03-21T13:40:56;11.90;99.90
54960;DHT22;40860;51.710;8.736;2023-03-21T13:45:00;11.90;99.90
54960;DHT22;40860;51.710;8.736;2023-03-21T13:49:13;11.90;99.90
54960;DHT22;40860;51.710;8.736;2023-03-21T13:53:31;11.90;99.90
54960;DHT22;40860;51.710;8.736;2023-03-21T13:57:38;11.90;99.90
54960;DHT22;40860;51.710;8.736;2023-03-21T14:01:56;12.00;99.90
54960;DHT22;40860;51.710;8.736;2023-03-21T14:05:59;12.10;99.90
54960;DHT22;40860;51.710;8.736;2023-03-21T14:10:05;12.10;99.90
54960;DHT22;40860;51.710;8.736;2023-03-21T14:14:11;12.10;99.90
54960;DHT22;40860;51.710;8.736;2023-03-21T14:18:15;12.20;99.90
54960;DHT22;40860;51.710;8.736;2023-03-21T14:22:36;12.20;99.90
54960;DHT22;40860;51.710;8.736;2023-03-21T14:26:41;12.30;99.90
54960;DHT22;40860;51.710;8.736;2023-03-21T14:30:50;12.30;99.90
54960;DHT22;40860;51.710;8.736;2023-03-21T14:34:54;12.30;99.90
54960;DHT22;40860;51.710;8.736;2023-03-21T14:39:03;12.30;99.90
54960;DHT22;40860;51.710;8.736;2023-03-21T14:43:10;12.40;99.90
54960;DHT22;40860;51.710;8.736;2023-03-21T14:47:19;12.40;99.90
54960;DHT22;40860;51.710;8.736;2023-03-21T14:51:23;12.40;99.90
54960;DHT22;40860;51.710;8.736;2023-03-21T14:55:25;12.40;99.90
54960;DHT22;40860;51.710;8.736;2023-03-21T14:59:31;12.30;99.90
54960;DHT22;40860;51.710;8.736;2023-03-21T15:03:36;12.20;99.90
54960;DHT22;40860;51.710;8.736;2023-03-21T15:07:39;12.20;99.90
54960;DHT22;40860;51.710;8.736;2023-03-21T15:11:47;12.10;99.90
54960;DHT22;40860;51.710;8.736;2023-03-21T15:15:50;12.00;99.90
54960;DHT22;40860;51.710;8.736;2023-03-21T15:19:56;12.00;99.90
54960;DHT22;40860;51.710;8.736;2023-03-21T15:24:03;11.90;99.90
54960;DHT22;40860;51.710;8.736;2023-03-21T15:28:12;11.80;99.90
54960;DHT22;40860;51.710;8.736;2023-03-21T15:32:16;11.70;99.90
54960;DHT22;40860;51.710;8.736;2023-03-21T15:36:25;11.70;99.90
54960;DHT22;40860;51.710;8.736;2023-03-21T15:40:30;11.70;99.90
54960;DHT22;40860;51.710;8.736;2023-03-21T15:44:34;11.60;99.90
54960;DHT22;40860;51.710;8.736;2023-03-21T15:48:37;11.60;99.90
54960;DHT22;40860;51.710;8.736;2023-03-21T15:52:41;11.60;99.90
54960;DHT22;40860;51.710;8.736;2023-03-21T15:56:44;11.60;99.90
54960;DHT22;40860;51.710;8.736;2023-03-21T16:00:53;11.60;99.90
54960;DHT22;40860;51.710;8.736;2023-03-21T16:05:01;11.60;99.90
54960;DHT22;40860;51.710;8.736;2023-03-21T16:09:09;11.60;99.90
54960;DHT22;40860;51.710;8.736;2023-03-21T16:13:15;11.60;99.90
54960;DHT22;40860;51.710;8.736;2023-03-21T16:17:30;11.50;99.90
54960;DHT22;40860;51.710;8.736;2023-03-21T16:21:34;11.50;99.90
54960;DHT22;40860;51.710;8.736;2023-03-21T16:25:40;11.50;99.90
54960;DHT22;40860;51.710;8.736;2023-03-21T16:29:46;11.40;99.90
54960;DHT22;40860;51.710;8.736;2023-03-21T16:33:49;11.40;99.90
54960;DHT22;40860;51.710;8.736;2023-03-21T16:37:52;11.40;99.90
54960;DHT22;40860;51.710;8.736;2023-03-21T16:41:56;11.40;99.80
54960;DHT22;40860;51.710;8.736;2023-03-21T16:46:01;11.40;99.90
54960;DHT22;40860;51.710;8.736;2023-03-21T16:50:22;11.50;99.90
54960;DHT22;40860;51.710;8.736;2023-03-21T16:54:27;11.50;99.90
54960;DHT22;40860;51.710;8.736;2023-03-21T16:58:32;11.60;99.70
54960;DHT22;40860;51.710;8.736;2023-03-21T17:02:35;11.60;99.60
54960;DHT22;40860;51.710;8.736;2023-03-21T17:06:41;11.70;99.10
54960;DHT22;40860;51.710;8.736;2023-03-21T17:10:46;11.70;99.30
54960;DHT22;40860;51.710;8.736;2023-03-21T17:14:50;11.60;98.70
54960;DHT22;40860;51.710;8.736;2023-03-21T17:18:52;11.50;98.50
54960;DHT22;40860;51.710;8.736;2023-03-21T17:22:56;11.50;98.50
54960;DHT22;40860;51.710;8.736;2023-03-21T17:27:00;11.40;98.30
54960;DHT22;40860;51.710;8.736;2023-03-21T17:31:08;11.30;98.20
54960;DHT22;40860;51.710;8.736;2023-03-21T17:35:13;11.20;98.10
54960;DHT22;40860;51.710;8.736;2023-03-21T17:39:19;11.20;98.40
54960;DHT22;40860;51.710;8.736;2023-03-21T17:43:23;11.10;98.40
54960;DHT22;40860;51.710;8.736;2023-03-21T17:47:27;11.10;98.10
54960;DHT22;40860;51.710;8.736;2023-03-21T17:51:31;11.10;98.00
54960;DHT22;40860;51.710;8.736;2023-03-21T17:55:34;11.10;98.00
54960;DHT22;40860;51.710;8.736;2023-03-21T17:59:37;11.00;97.90
54960;DHT22;40860;51.710;8.736;2023-03-21T18:03:41;11.00;97.90
54960;DHT22;40860;51.710;8.736;2023-03-21T18:07:44;10.90;97.90
54960;DHT22;40860;51.710;8.736;2023-03-21T18:12:07;10.90;97.80
54960;DHT22;40860;51.710;8.736;2023-03-21T18:16:12;10.90;97.80
54960;DHT22;40860;51.710;8.736;2023-03-21T18:20:20;10.90;97.80
54960;DHT22;40860;51.710;8.736;2023-03-21T18:24:24;10.90;97.90
54960;DHT22;40860;51.710;8.736;2023-03-21T18:28:27;10.80;98.00
54960;DHT22;40860;51.710;8.736;2023-03-21T18:32:31;10.80;98.30
54960;DHT22;40860;51.710;8.736;2023-03-21T18:36:36;10.70;98.40
54960;DHT22;40860;51.710;8.736;2023-03-21T18:40:40;10.70;98.40
54960;DHT22;40860;51.710;8.736;2023-03-21T18:44:44;10.60;98.40
54960;DHT22;40860;51.710;8.736;2023-03-21T18:48:48;10.60;98.80
54960;DHT22;40860;51.710;8.736;2023-03-21T18:52:53;10.60;98.70
54960;DHT22;40860;51.710;8.736;2023-03-21T18:56:58;10.60;98.70
54960;DHT22;40860;51.710;8.736;2023-03-21T19:01:21;10.60;98.70
54960;DHT22;40860;51.710;8.736;2023-03-21T19:05:24;10.60;98.80
54960;DHT22;40860;51.710;8.736;2023-03-21T19:09:30;10.60;98.90
54960;DHT22;40860;51.710;8.736;2023-03-21T19:13:54;10.50;99.00
54960;DHT22;40860;51.710;8.736;2023-03-21T19:17:57;10.50;99.00
54960;DHT22;40860;51.710;8.736;2023-03-21T19:22:19;10.50;99.20
54960;DHT22;40860;51.710;8.736;2023-03-21T19:26:24;10.60;98.90
54960;DHT22;40860;51.710;8.736;2023-03-21T19:30:27;10.60;99.00
54960;DHT22;40860;51.710;8.736;2023-03-21T19:34:30;10.60;99.00
54960;DHT22;40860;51.710;8.736;2023-03-21T19:38:33;10.60;99.10
54960;DHT22;40860;51.710;8.736;2023-03-21T19:42:37;10.50;99.20
54960;DHT22;40860;51.710;8.736;2023-03-21T19:46:41;10.60;99.10
54960;DHT22;40860;51.710;8.736;2023-03-21T19:50:44;10.60;99.20
54960;DHT22;40860;51.710;8.736;2023-03-21T19:55:07;10.60;99.20
54960;DHT22;40860;51.710;8.736;2023-03-21T19:59:12;10.60;99.20
54960;DHT22;40860;51.710;8.736;2023-03-21T20:03:15;10.70;99.30
54960;DHT22;40860;51.710;8.736;2023-03-21T20:07:23;10.70;99.20
54960;DHT22;40860;51.710;8.736;2023-03-21T20:11:26;10.80;99.00
54960;DHT22;40860;51.710;8.736;2023-03-21T20:15:30;10.80;98.90
54960;DHT22;40860;51.710;8.736;2023-03-21T20:19:33;10.90;98.90
54960;DHT22;40860;51.710;8.736;2023-03-21T20:23:36;10.90;98.90
54960;DHT22;40860;51.710;8.736;2023-03-21T20:27:40;10.90;98.80
54960;DHT22;40860;51.710;8.736;2023-03-21T20:31:45;10.90;98.80
54960;DHT22;40860;51.710;8.736;2023-03-21T20:35:48;10.90;98.70
54960;DHT22;40860;51.710;8.736;2023-03-21T20:40:12;10.80;98.70
54960;DHT22;40860;51.710;8.736;2023-03-21T20:44:16;10.80;98.70
54960;DHT22;40860;51.710;8.736;2023-03-21T20:48:41;10.80;98.80
54960;DHT22;40860;51.710;8.736;2023-03-21T20:52:44;10.80;98.80
54960;DHT22;40860;51.710;8.736;2023-03-21T20:57:06;10.80;98.80
54960;DHT22;40860;51.710;8.736;2023-03-21T21:01:09;10.90;98.70
54960;DHT22;40860;51.710;8.736;2023-03-21T21:05:18;10.90;98.60
54960;DHT22;40860;51.710;8.736;2023-03-21T21:09:34;10.90;98.50
54960;DHT22;40860;51.710;8.736;2023-03-21T21:13:37;10.90;98.40
54960;DHT22;40860;51.710;8.736;2023-03-21T21:17:41;10.80;98.20
54960;DHT22;40860;51.710;8.736;2023-03-21T21:22:06;10.80;98.30
54960;DHT22;40860;51.710;8.736;2023-03-21T21:26:12;10.60;98.40
54960;DHT22;40860;51.710;8.736;2023-03-21T21:30:15;10.60;98.40
54960;DHT22;40860;51.710;8.736;2023-03-21T21:34:19;10.60;98.60
54960;DHT22;40860;51.710;8.736;2023-03-21T21:38:23;10.60;98.50
54960;DHT22;40860;51.710;8.736;2023-03-21T21:42:27;10.60;98.20
54960;DHT22;40860;51.710;8.736;2023-03-21T21:46:30;10.60;98.20
54960;DHT22;40860;51.710;8.736;2023-03-21T21:50:33;10.70;98.00
54960;DHT22;40860;51.710;8.736;2023-03-21T21:54:38;10.60;97.90
54960;DHT22;40860;51.710;8.736;2023-03-21T21:58:46;10.60;97.90
54960;DHT22;40860;51.710;8.736;2023-03-21T22:02:49;10.50;98.10
54960;DHT22;40860;51.710;8.736;2023-03-21T22:06:52;10.40;98.30
54960;DHT22;40860;51.710;8.736;2023-03-21T22:10:58;10.40;98.50
54960;DHT22;40860;51.710;8.736;2023-03-21T22:15:04;10.40;98.60
54960;DHT22;40860;51.710;8.736;2023-03-21T22:19:07;10.40;98.70
54960;DHT22;40860;51.710;8.736;2023-03-21T22:23:10;10.40;98.70
54960;DHT22;40860;51.710;8.736;2023-03-21T22:27:15;10.40;98.50
54960;DHT22;40860;51.710;8.736;2023-03-21T22:31:18;10.50;98.50
54960;DHT22;40860;51.710;8.736;2023-03-21T22:35:23;10.50;98.50
54960;DHT22;40860;51.710;8.736;2023-03-21T22:39:26;10.50;98.40
54960;DHT22;40860;51.710;8.736;2023-03-21T22:43:32;10.50;98.30
54960;DHT22;40860;51.710;8.736;2023-03-21T22:47:37;10.60;98.40
54960;DHT22;40860;51.710;8.736;2023-03-21T22:51:40;10.60;98.00
54960;DHT22;40860;51.710;8.736;2023-03-21T22:55:44;10.60;98.00
54960;DHT22;40860;51.710;8.736;2023-03-21T22:59:49;10.60;98.00
54960;DHT22;40860;51.710;8.736;2023-03-21T23:03:52;10.60;98.00
54960;DHT22;40860;51.710;8.736;2023-03-21T23:07:57;10.60;98.00
54960;DHT22;40860;51.710;8.736;2023-03-21T23:12:03;10.50;98.20
54960;DHT22;40860;51.710;8.736;2023-03-21T23:16:08;10.50;98.20
54960;DHT22;40860;51.710;8.736;2023-03-21T23:20:11;10.50;98.30
54960;DHT22;40860;51.710;8.736;2023-03-21T23:24:17;10.40;98.40
54960;DHT22;40860;51.710;8.736;2023-03-21T23:28:21;10.40;98.50
54960;DHT22;40860;51.710;8.736;2023-03-21T23:32:26;10.40;98.60
54960;DHT22;40860;51.710;8.736;2023-03-21T23:36:29;10.30;98.70
54960;DHT22;40860;51.710;8.736;2023-03-21T23:40:32;10.30;98.80
54960;DHT22;40860;51.710;8.736;2023-03-21T23:44:35;10.20;98.90
54960;DHT22;40860;51.710;8.736;2023-03-21T23:48:45;10.20;99.00
54960;DHT22;40860;51.710;8.736;2023-03-21T23:52:48;10.30;99.10
54960;DHT22;40860;51.710;8.736;2023-03-21T23:56:51;10.30;99.20
